sensor_id;sensor_type;location;lat;lon;timestamp;P1;durP1;ratioP1;P2;durP2;ratioP2
13584;SDS011;6863;48.402;9.994;2023-03-01T00:00:39;18.40;;;13.23;;
13584;SDS011;6863;48.402;9.994;2023-03-01T00:03:05;16.60;;;13.17;;
13584;SDS011;6863;48.402;9.994;2023-03-01T00:05:31;17.53;;;13.73;;
13584;SDS011;6863;48.402;9.994;2023-03-01T00:07:57;15.93;;;12.53;;
13584;SDS011;6863;48.402;9.994;2023-03-01T00:10:22;18.13;;;13.33;;
13584;SDS011;6863;48.402;9.994;2023-03-01T00:12:48;21.23;;;13.90;;
13584;SDS011;6863;48.402;9.994;2023-03-01T00:15:14;17.40;;;13.83;;
13584;SDS011;6863;48.402;9.994;2023-03-01T00:17:39;20.20;;;13.63;;
13584;SDS011;6863;48.402;9.994;2023-03-01T00:20:05;18.17;;;13.87;;
13584;SDS011;6863;48.402;9.994;2023-03-01T00:22:35;18.07;;;13.80;;
13584;SDS011;6863;48.402;9.994;2023-03-01T00:25:01;17.17;;;13.03;;
13584;SDS011;6863;48.402;9.994;2023-03-01T00:27:27;15.03;;;12.43;;
13584;SDS011;6863;48.402;9.994;2023-03-01T00:29:53;17.80;;;14.07;;
13584;SDS011;6863;48.402;9.994;2023-03-01T00:32:19;17.17;;;13.83;;
13584;SDS011;6863;48.402;9.994;2023-03-01T00:34:44;17.27;;;13.80;;
13584;SDS011;6863;48.402;9.994;2023-03-01T00:37:19;16.93;;;12.90;;
13584;SDS011;6863;48.402;9.994;2023-03-01T00:39:46;17.70;;;14.33;;
13584;SDS011;6863;48.402;9.994;2023-03-01T00:42:12;17.60;;;14.27;;
13584;SDS011;6863;48.402;9.994;2023-03-01T00:44:37;18.40;;;14.03;;
13584;SDS011;6863;48.402;9.994;2023-03-01T00:47:03;18.07;;;14.37;;
13584;SDS011;6863;48.402;9.994;2023-03-01T00:49:29;20.50;;;14.03;;
13584;SDS011;6863;48.402;9.994;2023-03-01T00:51:54;19.60;;;14.23;;
13584;SDS011;6863;48.402;9.994;2023-03-01T00:54:20;16.97;;;13.67;;
13584;SDS011;6863;48.402;9.994;2023-03-01T00:56:46;21.57;;;14.50;;
13584;SDS011;6863;48.402;9.994;2023-03-01T00:59:11;17.73;;;14.47;;
13584;SDS011;6863;48.402;9.994;2023-03-01T01:01:37;20.70;;;14.60;;
13584;SDS011;6863;48.402;9.994;2023-03-01T01:04:03;23.33;;;14.87;;
13584;SDS011;6863;48.402;9.994;2023-03-01T01:06:35;18.13;;;14.37;;
13584;SDS011;6863;48.402;9.994;2023-03-01T01:09:07;20.40;;;14.80;;
13584;SDS011;6863;48.402;9.994;2023-03-01T01:11:34;19.27;;;13.00;;
13584;SDS011;6863;48.402;9.994;2023-03-01T01:14:01;18.73;;;13.87;;
13584;SDS011;6863;48.402;9.994;2023-03-01T01:16:27;18.10;;;14.33;;
13584;SDS011;6863;48.402;9.994;2023-03-01T01:18:53;21.43;;;15.33;;
13584;SDS011;6863;48.402;9.994;2023-03-01T01:21:21;17.60;;;14.67;;
13584;SDS011;6863;48.402;9.994;2023-03-01T01:23:48;20.97;;;14.57;;
13584;SDS011;6863;48.402;9.994;2023-03-01T01:26:15;15.93;;;14.23;;
13584;SDS011;6863;48.402;9.994;2023-03-01T01:28:44;23.47;;;15.53;;
13584;SDS011;6863;48.402;9.994;2023-03-01T01:31:09;19.43;;;14.07;;
13584;SDS011;6863;48.402;9.994;2023-03-01T01:33:36;18.43;;;15.00;;
13584;SDS011;6863;48.402;9.994;2023-03-01T01:36:02;20.50;;;14.50;;
13584;SDS011;6863;48.402;9.994;2023-03-01T01:38:29;18.23;;;14.40;;
13584;SDS011;6863;48.402;9.994;2023-03-01T01:40:54;18.03;;;13.77;;
13584;SDS011;6863;48.402;9.994;2023-03-01T01:43:22;19.53;;;15.63;;
13584;SDS011;6863;48.402;9.994;2023-03-01T01:45:56;19.77;;;14.30;;
13584;SDS011;6863;48.402;9.994;2023-03-01T01:48:28;18.00;;;14.77;;
13584;SDS011;6863;48.402;9.994;2023-03-01T01:51:05;19.53;;;14.57;;
13584;SDS011;6863;48.402;9.994;2023-03-01T01:53:34;19.83;;;15.00;;
13584;SDS011;6863;48.402;9.994;2023-03-01T01:56:01;20.30;;;13.60;;
13584;SDS011;6863;48.402;9.994;2023-03-01T01:58:28;19.10;;;14.30;;
13584;SDS011;6863;48.402;9.994;2023-03-01T02:00:55;20.00;;;15.17;;
13584;SDS011;6863;48.402;9.994;2023-03-01T02:03:25;20.37;;;14.97;;
13584;SDS011;6863;48.402;9.994;2023-03-01T02:06:03;19.93;;;14.53;;
13584;SDS011;6863;48.402;9.994;2023-03-01T02:08:30;20.50;;;14.73;;
13584;SDS011;6863;48.402;9.994;2023-03-01T02:10:58;23.07;;;15.27;;
13584;SDS011;6863;48.402;9.994;2023-03-01T02:13:26;22.47;;;15.83;;
13584;SDS011;6863;48.402;9.994;2023-03-01T02:15:52;17.40;;;14.10;;
13584;SDS011;6863;48.402;9.994;2023-03-01T02:18:18;20.30;;;14.43;;
13584;SDS011;6863;48.402;9.994;2023-03-01T02:23:22;23.53;;;15.63;;
13584;SDS011;6863;48.402;9.994;2023-03-01T02:28:37;19.67;;;15.10;;
13584;SDS011;6863;48.402;9.994;2023-03-01T02:31:05;20.03;;;15.50;;
13584;SDS011;6863;48.402;9.994;2023-03-01T02:33:51;18.37;;;13.87;;
13584;SDS011;6863;48.402;9.994;2023-03-01T02:36:20;23.50;;;15.97;;
13584;SDS011;6863;48.402;9.994;2023-03-01T02:38:56;20.87;;;14.67;;
13584;SDS011;6863;48.402;9.994;2023-03-01T02:41:23;19.80;;;15.03;;
13584;SDS011;6863;48.402;9.994;2023-03-01T02:43:52;17.57;;;14.30;;
13584;SDS011;6863;48.402;9.994;2023-03-01T02:46:19;19.80;;;15.23;;
13584;SDS011;6863;48.402;9.994;2023-03-01T02:48:48;18.23;;;13.97;;
13584;SDS011;6863;48.402;9.994;2023-03-01T02:51:22;18.03;;;14.40;;
13584;SDS011;6863;48.402;9.994;2023-03-01T02:56:47;22.13;;;15.20;;
13584;SDS011;6863;48.402;9.994;2023-03-01T02:59:15;21.00;;;15.00;;
13584;SDS011;6863;48.402;9.994;2023-03-01T03:01:42;22.20;;;14.57;;
13584;SDS011;6863;48.402;9.994;2023-03-01T03:04:09;18.30;;;13.57;;
13584;SDS011;6863;48.402;9.994;2023-03-01T03:06:41;22.37;;;14.97;;
13584;SDS011;6863;48.402;9.994;2023-03-01T03:09:08;22.03;;;15.67;;
13584;SDS011;6863;48.402;9.994;2023-03-01T03:11:33;21.57;;;15.07;;
13584;SDS011;6863;48.402;9.994;2023-03-01T03:13:59;21.13;;;15.23;;
13584;SDS011;6863;48.402;9.994;2023-03-01T03:16:25;19.30;;;14.57;;
13584;SDS011;6863;48.402;9.994;2023-03-01T03:18:51;22.13;;;15.03;;
13584;SDS011;6863;48.402;9.994;2023-03-01T03:21:16;21.07;;;15.23;;
13584;SDS011;6863;48.402;9.994;2023-03-01T03:23:42;21.67;;;15.80;;
13584;SDS011;6863;48.402;9.994;2023-03-01T03:26:08;21.43;;;15.80;;
13584;SDS011;6863;48.402;9.994;2023-03-01T03:28:38;18.87;;;13.70;;
13584;SDS011;6863;48.402;9.994;2023-03-01T03:31:05;19.73;;;15.07;;
13584;SDS011;6863;48.402;9.994;2023-03-01T03:33:32;20.43;;;14.50;;
13584;SDS011;6863;48.402;9.994;2023-03-01T03:36:07;19.50;;;15.10;;
13584;SDS011;6863;48.402;9.994;2023-03-01T03:38:38;20.27;;;15.27;;
13584;SDS011;6863;48.402;9.994;2023-03-01T03:41:07;21.40;;;15.17;;
13584;SDS011;6863;48.402;9.994;2023-03-01T03:43:34;20.93;;;15.83;;
13584;SDS011;6863;48.402;9.994;2023-03-01T03:46:02;20.43;;;15.57;;
13584;SDS011;6863;48.402;9.994;2023-03-01T03:48:35;21.83;;;15.63;;
13584;SDS011;6863;48.402;9.994;2023-03-01T03:51:06;19.03;;;14.50;;
13584;SDS011;6863;48.402;9.994;2023-03-01T03:53:32;21.23;;;15.30;;
13584;SDS011;6863;48.402;9.994;2023-03-01T03:56:01;19.20;;;15.77;;
13584;SDS011;6863;48.402;9.994;2023-03-01T03:58:27;21.47;;;15.90;;
13584;SDS011;6863;48.402;9.994;2023-03-01T04:00:54;19.97;;;14.70;;
13584;SDS011;6863;48.402;9.994;2023-03-01T04:03:21;21.87;;;14.93;;
13584;SDS011;6863;48.402;9.994;2023-03-01T04:05:48;21.03;;;15.33;;
13584;SDS011;6863;48.402;9.994;2023-03-01T04:08:23;24.60;;;15.63;;
13584;SDS011;6863;48.402;9.994;2023-03-01T04:10:50;20.47;;;15.20;;
13584;SDS011;6863;48.402;9.994;2023-03-01T04:13:19;21.87;;;16.13;;
13584;SDS011;6863;48.402;9.994;2023-03-01T04:15:50;20.87;;;14.70;;
13584;SDS011;6863;48.402;9.994;2023-03-01T04:18:25;21.00;;;15.27;;
13584;SDS011;6863;48.402;9.994;2023-03-01T04:23:54;22.63;;;15.53;;
13584;SDS011;6863;48.402;9.994;2023-03-01T04:26:22;20.37;;;15.20;;
13584;SDS011;6863;48.402;9.994;2023-03-01T04:28:52;21.40;;;16.20;;
13584;SDS011;6863;48.402;9.994;2023-03-01T04:31:18;21.60;;;15.47;;
13584;SDS011;6863;48.402;9.994;2023-03-01T04:36:30;20.83;;;14.40;;
13584;SDS011;6863;48.402;9.994;2023-03-01T04:38:56;21.27;;;15.20;;
13584;SDS011;6863;48.402;9.994;2023-03-01T04:41:25;23.43;;;16.30;;
13584;SDS011;6863;48.402;9.994;2023-03-01T04:43:56;20.63;;;15.43;;
13584;SDS011;6863;48.402;9.994;2023-03-01T04:46:24;20.50;;;14.93;;
13584;SDS011;6863;48.402;9.994;2023-03-01T04:48:51;19.83;;;14.63;;
13584;SDS011;6863;48.402;9.994;2023-03-01T04:51:22;24.23;;;16.13;;
13584;SDS011;6863;48.402;9.994;2023-03-01T04:53:50;20.53;;;14.73;;
13584;SDS011;6863;48.402;9.994;2023-03-01T04:56:19;19.53;;;14.50;;
13584;SDS011;6863;48.402;9.994;2023-03-01T04:58:45;20.97;;;16.70;;
13584;SDS011;6863;48.402;9.994;2023-03-01T05:01:15;19.80;;;15.03;;
13584;SDS011;6863;48.402;9.994;2023-03-01T05:03:47;21.17;;;16.00;;
13584;SDS011;6863;48.402;9.994;2023-03-01T05:06:14;22.73;;;14.97;;
13584;SDS011;6863;48.402;9.994;2023-03-01T05:08:46;18.93;;;15.33;;
13584;SDS011;6863;48.402;9.994;2023-03-01T05:11:27;19.53;;;14.63;;
13584;SDS011;6863;48.402;9.994;2023-03-01T05:14:00;20.70;;;15.67;;
13584;SDS011;6863;48.402;9.994;2023-03-01T05:16:32;27.67;;;16.67;;
13584;SDS011;6863;48.402;9.994;2023-03-01T05:19:02;21.37;;;15.50;;
13584;SDS011;6863;48.402;9.994;2023-03-01T05:21:40;20.37;;;15.93;;
13584;SDS011;6863;48.402;9.994;2023-03-01T05:24:37;21.23;;;15.50;;
13584;SDS011;6863;48.402;9.994;2023-03-01T05:27:03;25.10;;;17.03;;
13584;SDS011;6863;48.402;9.994;2023-03-01T05:29:30;24.00;;;15.60;;
13584;SDS011;6863;48.402;9.994;2023-03-01T05:32:05;21.20;;;16.30;;
13584;SDS011;6863;48.402;9.994;2023-03-01T05:34:32;25.10;;;16.03;;
13584;SDS011;6863;48.402;9.994;2023-03-01T05:36:59;39.83;;;17.00;;
13584;SDS011;6863;48.402;9.994;2023-03-01T05:39:25;27.20;;;17.00;;
13584;SDS011;6863;48.402;9.994;2023-03-01T05:41:53;34.13;;;19.10;;
13584;SDS011;6863;48.402;9.994;2023-03-01T05:44:23;23.17;;;16.90;;
13584;SDS011;6863;48.402;9.994;2023-03-01T05:46:53;28.20;;;17.53;;
13584;SDS011;6863;48.402;9.994;2023-03-01T05:49:20;22.47;;;16.60;;
13584;SDS011;6863;48.402;9.994;2023-03-01T05:51:50;24.70;;;17.30;;
13584;SDS011;6863;48.402;9.994;2023-03-01T05:54:21;24.93;;;15.57;;
13584;SDS011;6863;48.402;9.994;2023-03-01T05:56:47;23.47;;;15.97;;
13584;SDS011;6863;48.402;9.994;2023-03-01T05:59:12;23.90;;;16.20;;
13584;SDS011;6863;48.402;9.994;2023-03-01T06:01:39;25.10;;;16.43;;
13584;SDS011;6863;48.402;9.994;2023-03-01T06:04:06;25.83;;;17.13;;
13584;SDS011;6863;48.402;9.994;2023-03-01T06:06:36;23.67;;;17.50;;
13584;SDS011;6863;48.402;9.994;2023-03-01T06:09:05;20.83;;;15.60;;
13584;SDS011;6863;48.402;9.994;2023-03-01T06:11:33;34.97;;;17.33;;
13584;SDS011;6863;48.402;9.994;2023-03-01T06:14:14;22.53;;;15.50;;
13584;SDS011;6863;48.402;9.994;2023-03-01T06:16:40;21.77;;;17.00;;
13584;SDS011;6863;48.402;9.994;2023-03-01T06:19:28;24.67;;;17.40;;
13584;SDS011;6863;48.402;9.994;2023-03-01T06:22:00;76.43;;;23.30;;
13584;SDS011;6863;48.402;9.994;2023-03-01T06:24:45;24.87;;;17.03;;
13584;SDS011;6863;48.402;9.994;2023-03-01T06:27:54;21.70;;;16.40;;
13584;SDS011;6863;48.402;9.994;2023-03-01T06:30:20;28.83;;;17.40;;
13584;SDS011;6863;48.402;9.994;2023-03-01T06:32:46;28.43;;;17.40;;
13584;SDS011;6863;48.402;9.994;2023-03-01T06:35:16;23.00;;;16.30;;
13584;SDS011;6863;48.402;9.994;2023-03-01T06:37:43;23.17;;;16.50;;
13584;SDS011;6863;48.402;9.994;2023-03-01T06:40:10;23.53;;;15.83;;
13584;SDS011;6863;48.402;9.994;2023-03-01T06:42:40;22.23;;;17.03;;
13584;SDS011;6863;48.402;9.994;2023-03-01T06:45:08;33.47;;;16.63;;
13584;SDS011;6863;48.402;9.994;2023-03-01T06:47:34;39.53;;;17.83;;
13584;SDS011;6863;48.402;9.994;2023-03-01T06:50:00;24.73;;;16.13;;
13584;SDS011;6863;48.402;9.994;2023-03-01T06:52:27;25.17;;;16.47;;
13584;SDS011;6863;48.402;9.994;2023-03-01T06:54:52;40.37;;;18.20;;
13584;SDS011;6863;48.402;9.994;2023-03-01T06:57:18;25.57;;;16.80;;
13584;SDS011;6863;48.402;9.994;2023-03-01T06:59:44;22.17;;;15.90;;
13584;SDS011;6863;48.402;9.994;2023-03-01T07:02:10;26.43;;;17.43;;
13584;SDS011;6863;48.402;9.994;2023-03-01T07:04:36;19.90;;;15.90;;
13584;SDS011;6863;48.402;9.994;2023-03-01T07:07:02;22.50;;;16.40;;
13584;SDS011;6863;48.402;9.994;2023-03-01T07:09:28;26.93;;;17.53;;
13584;SDS011;6863;48.402;9.994;2023-03-01T07:11:54;20.40;;;15.67;;
13584;SDS011;6863;48.402;9.994;2023-03-01T07:14:20;21.20;;;15.77;;
13584;SDS011;6863;48.402;9.994;2023-03-01T07:16:46;25.23;;;17.30;;
13584;SDS011;6863;48.402;9.994;2023-03-01T07:19:12;24.70;;;15.70;;
13584;SDS011;6863;48.402;9.994;2023-03-01T07:21:37;23.33;;;16.63;;
13584;SDS011;6863;48.402;9.994;2023-03-01T07:24:05;21.57;;;15.03;;
13584;SDS011;6863;48.402;9.994;2023-03-01T07:26:31;20.67;;;16.63;;
13584;SDS011;6863;48.402;9.994;2023-03-01T07:29:01;45.33;;;19.03;;
13584;SDS011;6863;48.402;9.994;2023-03-01T07:31:27;19.30;;;15.57;;
13584;SDS011;6863;48.402;9.994;2023-03-01T07:33:53;25.60;;;16.97;;
13584;SDS011;6863;48.402;9.994;2023-03-01T07:36:20;22.73;;;16.17;;
13584;SDS011;6863;48.402;9.994;2023-03-01T07:38:47;21.17;;;16.90;;
13584;SDS011;6863;48.402;9.994;2023-03-01T07:41:12;21.30;;;15.77;;
13584;SDS011;6863;48.402;9.994;2023-03-01T07:43:39;22.83;;;16.10;;
13584;SDS011;6863;48.402;9.994;2023-03-01T07:46:04;25.37;;;15.80;;
13584;SDS011;6863;48.402;9.994;2023-03-01T07:48:31;29.33;;;16.33;;
13584;SDS011;6863;48.402;9.994;2023-03-01T07:50:57;21.07;;;15.83;;
13584;SDS011;6863;48.402;9.994;2023-03-01T07:53:27;19.43;;;15.50;;
13584;SDS011;6863;48.402;9.994;2023-03-01T07:58:35;29.60;;;16.53;;
13584;SDS011;6863;48.402;9.994;2023-03-01T08:01:06;25.20;;;15.97;;
13584;SDS011;6863;48.402;9.994;2023-03-01T08:03:34;22.27;;;17.07;;
13584;SDS011;6863;48.402;9.994;2023-03-01T08:06:01;25.63;;;17.07;;
13584;SDS011;6863;48.402;9.994;2023-03-01T08:08:28;36.27;;;18.13;;
13584;SDS011;6863;48.402;9.994;2023-03-01T08:10:57;36.57;;;16.80;;
13584;SDS011;6863;48.402;9.994;2023-03-01T08:13:27;22.00;;;16.03;;
13584;SDS011;6863;48.402;9.994;2023-03-01T08:15:53;23.03;;;16.13;;
13584;SDS011;6863;48.402;9.994;2023-03-01T08:18:19;20.10;;;16.27;;
13584;SDS011;6863;48.402;9.994;2023-03-01T08:20:45;24.27;;;16.57;;
13584;SDS011;6863;48.402;9.994;2023-03-01T08:23:11;21.40;;;16.00;;
13584;SDS011;6863;48.402;9.994;2023-03-01T08:25:37;24.43;;;16.60;;
13584;SDS011;6863;48.402;9.994;2023-03-01T08:28:03;23.80;;;15.90;;
13584;SDS011;6863;48.402;9.994;2023-03-01T08:30:29;19.80;;;15.83;;
13584;SDS011;6863;48.402;9.994;2023-03-01T08:32:54;22.40;;;17.13;;
13584;SDS011;6863;48.402;9.994;2023-03-01T08:35:20;22.83;;;16.10;;
13584;SDS011;6863;48.402;9.994;2023-03-01T08:37:46;21.37;;;16.07;;
13584;SDS011;6863;48.402;9.994;2023-03-01T08:40:12;18.63;;;15.90;;
13584;SDS011;6863;48.402;9.994;2023-03-01T08:42:39;21.93;;;16.23;;
13584;SDS011;6863;48.402;9.994;2023-03-01T08:45:08;18.73;;;15.70;;
13584;SDS011;6863;48.402;9.994;2023-03-01T08:47:34;24.03;;;15.63;;
13584;SDS011;6863;48.402;9.994;2023-03-01T08:50:00;19.23;;;15.30;;
13584;SDS011;6863;48.402;9.994;2023-03-01T08:52:25;22.80;;;16.13;;
13584;SDS011;6863;48.402;9.994;2023-03-01T08:54:51;23.63;;;16.40;;
13584;SDS011;6863;48.402;9.994;2023-03-01T08:57:20;22.87;;;16.37;;
13584;SDS011;6863;48.402;9.994;2023-03-01T08:59:46;21.07;;;16.53;;
13584;SDS011;6863;48.402;9.994;2023-03-01T09:02:12;28.27;;;17.30;;
13584;SDS011;6863;48.402;9.994;2023-03-01T09:04:40;20.80;;;16.80;;
13584;SDS011;6863;48.402;9.994;2023-03-01T09:07:05;22.03;;;17.30;;
13584;SDS011;6863;48.402;9.994;2023-03-01T09:09:31;28.00;;;16.30;;
13584;SDS011;6863;48.402;9.994;2023-03-01T09:11:57;20.03;;;16.50;;
13584;SDS011;6863;48.402;9.994;2023-03-01T09:14:23;22.40;;;16.57;;
13584;SDS011;6863;48.402;9.994;2023-03-01T09:16:48;24.77;;;17.03;;
13584;SDS011;6863;48.402;9.994;2023-03-01T09:19:14;20.53;;;15.60;;
13584;SDS011;6863;48.402;9.994;2023-03-01T09:21:40;20.83;;;16.43;;
13584;SDS011;6863;48.402;9.994;2023-03-01T09:24:19;24.63;;;17.83;;
13584;SDS011;6863;48.402;9.994;2023-03-01T09:26:46;23.27;;;16.20;;
13584;SDS011;6863;48.402;9.994;2023-03-01T09:29:12;21.70;;;15.93;;
13584;SDS011;6863;48.402;9.994;2023-03-01T09:31:39;44.93;;;19.80;;
13584;SDS011;6863;48.402;9.994;2023-03-01T09:34:05;26.03;;;16.97;;
13584;SDS011;6863;48.402;9.994;2023-03-01T09:36:31;39.57;;;19.97;;
13584;SDS011;6863;48.402;9.994;2023-03-01T09:38:58;73.50;;;22.37;;
13584;SDS011;6863;48.402;9.994;2023-03-01T09:46:52;21.90;;;16.70;;
13584;SDS011;6863;48.402;9.994;2023-03-01T09:49:19;21.33;;;15.80;;
13584;SDS011;6863;48.402;9.994;2023-03-01T09:52:35;25.50;;;17.00;;
13584;SDS011;6863;48.402;9.994;2023-03-01T09:54:54;22.23;;;16.47;;
13584;SDS011;6863;48.402;9.994;2023-03-01T09:57:33;23.63;;;17.43;;
13584;SDS011;6863;48.402;9.994;2023-03-01T10:03:16;23.77;;;17.03;;
13584;SDS011;6863;48.402;9.994;2023-03-01T10:05:50;22.87;;;17.73;;
13584;SDS011;6863;48.402;9.994;2023-03-01T10:08:50;21.57;;;16.53;;
13584;SDS011;6863;48.402;9.994;2023-03-01T10:11:31;24.33;;;17.47;;
13584;SDS011;6863;48.402;9.994;2023-03-01T10:19:34;19.93;;;15.70;;
13584;SDS011;6863;48.402;9.994;2023-03-01T10:22:09;23.00;;;17.13;;
13584;SDS011;6863;48.402;9.994;2023-03-01T10:24:39;20.73;;;16.47;;
13584;SDS011;6863;48.402;9.994;2023-03-01T10:27:07;22.93;;;15.97;;
13584;SDS011;6863;48.402;9.994;2023-03-01T10:32:43;20.13;;;16.87;;
13584;SDS011;6863;48.402;9.994;2023-03-01T10:35:16;20.10;;;16.37;;
13584;SDS011;6863;48.402;9.994;2023-03-01T10:40:32;19.73;;;16.20;;
13584;SDS011;6863;48.402;9.994;2023-03-01T10:42:59;21.33;;;17.43;;
13584;SDS011;6863;48.402;9.994;2023-03-01T10:45:37;21.67;;;16.47;;
13584;SDS011;6863;48.402;9.994;2023-03-01T10:48:05;19.20;;;16.93;;
13584;SDS011;6863;48.402;9.994;2023-03-01T10:51:12;19.10;;;16.93;;
13584;SDS011;6863;48.402;9.994;2023-03-01T10:53:42;20.00;;;17.90;;
13584;SDS011;6863;48.402;9.994;2023-03-01T10:56:14;21.67;;;18.60;;
13584;SDS011;6863;48.402;9.994;2023-03-01T10:59:03;18.97;;;16.93;;
13584;SDS011;6863;48.402;9.994;2023-03-01T11:01:29;19.57;;;17.47;;
13584;SDS011;6863;48.402;9.994;2023-03-01T11:06:32;20.95;;;17.27;;
13584;SDS011;6863;48.402;9.994;2023-03-01T11:11:56;19.83;;;16.98;;
13584;SDS011;6863;48.402;9.994;2023-03-01T11:17:20;20.92;;;17.60;;
13584;SDS011;6863;48.402;9.994;2023-03-01T11:22:32;22.17;;;19.90;;
13584;SDS011;6863;48.402;9.994;2023-03-01T11:25:00;21.17;;;19.17;;
13584;SDS011;6863;48.402;9.994;2023-03-01T11:27:33;21.27;;;19.13;;
13584;SDS011;6863;48.402;9.994;2023-03-01T11:30:05;22.10;;;18.98;;
13584;SDS011;6863;48.402;9.994;2023-03-01T11:32:50;19.90;;;18.00;;
13584;SDS011;6863;48.402;9.994;2023-03-01T11:35:47;21.35;;;19.13;;
13584;SDS011;6863;48.402;9.994;2023-03-01T11:38:35;46.20;;;21.73;;
13584;SDS011;6863;48.402;9.994;2023-03-01T11:41:04;20.25;;;18.40;;
13584;SDS011;6863;48.402;9.994;2023-03-01T12:00:30;28.00;;;19.00;;
13584;SDS011;6863;48.402;9.994;2023-03-01T12:11:28;19.52;;;17.75;;
13584;SDS011;6863;48.402;9.994;2023-03-01T12:23:02;19.00;;;17.35;;
13584;SDS011;6863;48.402;9.994;2023-03-01T12:28:24;18.88;;;17.17;;
13584;SDS011;6863;48.402;9.994;2023-03-01T12:33:39;20.90;;;18.92;;
13584;SDS011;6863;48.402;9.994;2023-03-01T12:42:09;20.05;;;18.10;;
13584;SDS011;6863;48.402;9.994;2023-03-01T12:44:56;20.45;;;18.35;;
13584;SDS011;6863;48.402;9.994;2023-03-01T12:50:14;19.20;;;17.40;;
13584;SDS011;6863;48.402;9.994;2023-03-01T12:52:47;20.35;;;18.42;;
13584;SDS011;6863;48.402;9.994;2023-03-01T12:55:31;20.35;;;18.33;;
13584;SDS011;6863;48.402;9.994;2023-03-01T13:03:26;21.13;;;18.65;;
13584;SDS011;6863;48.402;9.994;2023-03-01T13:06:18;21.55;;;17.80;;
13584;SDS011;6863;48.402;9.994;2023-03-01T13:08:59;24.33;;;19.60;;
13584;SDS011;6863;48.402;9.994;2023-03-01T13:11:35;19.35;;;17.67;;
13584;SDS011;6863;48.402;9.994;2023-03-01T13:16:44;21.17;;;19.00;;
13584;SDS011;6863;48.402;9.994;2023-03-01T13:21:50;19.35;;;17.33;;
13584;SDS011;6863;48.402;9.994;2023-03-01T13:24:38;20.05;;;18.23;;
13584;SDS011;6863;48.402;9.994;2023-03-01T13:29:47;20.13;;;18.20;;
13584;SDS011;6863;48.402;9.994;2023-03-01T13:32:26;20.02;;;18.23;;
13584;SDS011;6863;48.402;9.994;2023-03-01T13:34:54;20.65;;;18.45;;
13584;SDS011;6863;48.402;9.994;2023-03-01T13:37:37;19.83;;;17.92;;
13584;SDS011;6863;48.402;9.994;2023-03-01T13:40:05;18.80;;;17.10;;
13584;SDS011;6863;48.402;9.994;2023-03-01T13:42:55;19.13;;;17.45;;
13584;SDS011;6863;48.402;9.994;2023-03-01T13:48:11;20.80;;;18.70;;
13584;SDS011;6863;48.402;9.994;2023-03-01T13:51:05;24.90;;;18.45;;
13584;SDS011;6863;48.402;9.994;2023-03-01T13:53:35;19.10;;;17.35;;
13584;SDS011;6863;48.402;9.994;2023-03-01T13:56:11;32.85;;;19.35;;
13584;SDS011;6863;48.402;9.994;2023-03-01T13:58:44;29.38;;;18.67;;
13584;SDS011;6863;48.402;9.994;2023-03-01T14:01:20;18.77;;;17.13;;
13584;SDS011;6863;48.402;9.994;2023-03-01T14:03:48;21.90;;;17.77;;
13584;SDS011;6863;48.402;9.994;2023-03-01T14:06:20;21.27;;;18.58;;
13584;SDS011;6863;48.402;9.994;2023-03-01T14:08:48;18.02;;;16.50;;
13584;SDS011;6863;48.402;9.994;2023-03-01T14:11:35;18.90;;;17.20;;
13584;SDS011;6863;48.402;9.994;2023-03-01T14:19:47;32.78;;;18.52;;
13584;SDS011;6863;48.402;9.994;2023-03-01T14:25:17;20.10;;;16.13;;
13584;SDS011;6863;48.402;9.994;2023-03-01T14:27:55;19.20;;;17.30;;
13584;SDS011;6863;48.402;9.994;2023-03-01T14:30:37;18.00;;;16.30;;
13584;SDS011;6863;48.402;9.994;2023-03-01T14:33:55;18.73;;;16.90;;
13584;SDS011;6863;48.402;9.994;2023-03-01T14:36:06;18.00;;;16.20;;
13584;SDS011;6863;48.402;9.994;2023-03-01T14:38:44;25.38;;;16.98;;
13584;SDS011;6863;48.402;9.994;2023-03-01T14:41:15;18.48;;;16.75;;
13584;SDS011;6863;48.402;9.994;2023-03-01T14:44:06;17.35;;;15.65;;
13584;SDS011;6863;48.402;9.994;2023-03-01T14:46:41;18.13;;;16.42;;
13584;SDS011;6863;48.402;9.994;2023-03-01T14:49:16;25.05;;;18.05;;
13584;SDS011;6863;48.402;9.994;2023-03-01T14:52:19;17.80;;;16.05;;
13584;SDS011;6863;48.402;9.994;2023-03-01T14:54:44;24.85;;;16.98;;
13584;SDS011;6863;48.402;9.994;2023-03-01T14:57:17;19.40;;;17.25;;
13584;SDS011;6863;48.402;9.994;2023-03-01T14:59:46;16.98;;;15.38;;
13584;SDS011;6863;48.402;9.994;2023-03-01T15:02:17;17.40;;;15.75;;
13584;SDS011;6863;48.402;9.994;2023-03-01T15:04:46;58.50;;;21.55;;
13584;SDS011;6863;48.402;9.994;2023-03-01T15:07:14;17.25;;;15.55;;
13584;SDS011;6863;48.402;9.994;2023-03-01T15:09:40;17.83;;;15.00;;
13584;SDS011;6863;48.402;9.994;2023-03-01T15:12:31;23.92;;;16.42;;
13584;SDS011;6863;48.402;9.994;2023-03-01T15:15:01;17.13;;;15.35;;
13584;SDS011;6863;48.402;9.994;2023-03-01T15:17:50;17.38;;;15.05;;
13584;SDS011;6863;48.402;9.994;2023-03-01T15:22:53;17.33;;;15.68;;
13584;SDS011;6863;48.402;9.994;2023-03-01T15:25:21;16.95;;;15.43;;
13584;SDS011;6863;48.402;9.994;2023-03-01T15:27:58;16.75;;;15.15;;
13584;SDS011;6863;48.402;9.994;2023-03-01T15:30:31;18.08;;;16.23;;
13584;SDS011;6863;48.402;9.994;2023-03-01T15:35:53;16.27;;;14.73;;
13584;SDS011;6863;48.402;9.994;2023-03-01T15:38:33;24.88;;;15.88;;
13584;SDS011;6863;48.402;9.994;2023-03-01T15:41:20;23.08;;;16.13;;
13584;SDS011;6863;48.402;9.994;2023-03-01T15:43:58;17.35;;;15.60;;
13584;SDS011;6863;48.402;9.994;2023-03-01T15:49:02;25.15;;;15.18;;
13584;SDS011;6863;48.402;9.994;2023-03-01T15:54:21;19.13;;;15.70;;
13584;SDS011;6863;48.402;9.994;2023-03-01T15:56:49;18.95;;;15.13;;
13584;SDS011;6863;48.402;9.994;2023-03-01T15:59:15;19.75;;;14.98;;
13584;SDS011;6863;48.402;9.994;2023-03-01T16:01:47;15.77;;;13.97;;
13584;SDS011;6863;48.402;9.994;2023-03-01T16:04:14;16.67;;;14.97;;
13584;SDS011;6863;48.402;9.994;2023-03-01T16:06:50;41.43;;;17.30;;
13584;SDS011;6863;48.402;9.994;2023-03-01T16:09:24;18.90;;;14.53;;
13584;SDS011;6863;48.402;9.994;2023-03-01T16:11:50;16.33;;;14.67;;
13584;SDS011;6863;48.402;9.994;2023-03-01T16:14:18;20.47;;;14.50;;
13584;SDS011;6863;48.402;9.994;2023-03-01T16:16:44;15.87;;;13.83;;
13584;SDS011;6863;48.402;9.994;2023-03-01T16:19:10;20.27;;;14.80;;
13584;SDS011;6863;48.402;9.994;2023-03-01T16:21:36;19.47;;;13.83;;
13584;SDS011;6863;48.402;9.994;2023-03-01T16:24:02;15.17;;;13.20;;
13584;SDS011;6863;48.402;9.994;2023-03-01T16:26:28;17.47;;;13.80;;
13584;SDS011;6863;48.402;9.994;2023-03-01T16:28:55;17.10;;;13.70;;
13584;SDS011;6863;48.402;9.994;2023-03-01T16:31:21;16.27;;;13.30;;
13584;SDS011;6863;48.402;9.994;2023-03-01T16:33:48;26.77;;;13.67;;
13584;SDS011;6863;48.402;9.994;2023-03-01T16:36:17;17.33;;;13.40;;
13584;SDS011;6863;48.402;9.994;2023-03-01T16:38:44;17.40;;;13.20;;
13584;SDS011;6863;48.402;9.994;2023-03-01T16:41:13;17.07;;;13.67;;
13584;SDS011;6863;48.402;9.994;2023-03-01T16:43:40;16.73;;;13.07;;
13584;SDS011;6863;48.402;9.994;2023-03-01T16:46:10;18.17;;;14.70;;
13584;SDS011;6863;48.402;9.994;2023-03-01T16:48:40;21.70;;;14.63;;
13584;SDS011;6863;48.402;9.994;2023-03-01T16:51:06;18.53;;;13.07;;
13584;SDS011;6863;48.402;9.994;2023-03-01T16:53:32;17.47;;;13.97;;
13584;SDS011;6863;48.402;9.994;2023-03-01T16:56:00;19.77;;;14.50;;
13584;SDS011;6863;48.402;9.994;2023-03-01T16:58:27;18.27;;;13.33;;
13584;SDS011;6863;48.402;9.994;2023-03-01T17:00:53;17.77;;;13.20;;
13584;SDS011;6863;48.402;9.994;2023-03-01T17:03:23;18.10;;;13.83;;